createdAt,value
2019-05-30T00:06:37.351Z,8.38
2019-05-30T00:16:41.744Z,8.36
2019-05-30T00:26:46.276Z,8.32
2019-05-30T00:36:51.866Z,8.16
2019-05-30T00:46:56.321Z,7.98
2019-05-30T00:57:00.780Z,7.85
2019-05-30T01:07:05.458Z,7.70
2019-05-30T01:17:10.044Z,7.63
2019-05-30T01:27:14.693Z,7.52
2019-05-30T01:37:19.250Z,7.29
2019-05-30T01:47:23.707Z,7.14
2019-05-30T01:57:28.134Z,6.97
2019-05-30T02:07:32.572Z,6.89
2019-05-30T02:17:37.173Z,6.88
2019-05-30T02:27:41.649Z,6.75
2019-05-30T02:37:46.109Z,6.65
2019-05-30T02:47:50.739Z,6.60
2019-05-30T02:57:55.281Z,6.52
2019-05-30T03:08:01.806Z,6.49
2019-05-30T03:18:07.995Z,6.51
2019-05-30T03:28:13.627Z,6.62
2019-05-30T03:38:18.359Z,6.75
2019-05-30T03:48:26.172Z,6.88
2019-05-30T03:58:42.824Z,6.97
2019-05-30T04:08:50.025Z,7.21
2019-05-30T04:18:54.643Z,7.57
2019-05-30T04:28:59.159Z,7.93
2019-05-30T04:39:05.331Z,8.29
2019-05-30T04:49:10.177Z,8.46
2019-05-30T04:59:17.314Z,8.85
2019-05-30T05:09:22.369Z,9.12
2019-05-30T05:19:27.437Z,9.33
2019-05-30T05:29:31.875Z,9.67
2019-05-30T05:39:36.334Z,10.02
2019-05-30T05:49:40.852Z,10.38
2019-05-30T05:59:45.354Z,10.82
2019-05-30T06:09:49.938Z,11.41
2019-05-30T06:19:54.477Z,11.77
2019-05-30T06:29:59.957Z,12.23
2019-05-30T06:40:06.959Z,13.54
2019-05-30T06:50:11.702Z,13.31
2019-05-30T07:00:16.585Z,13.13
2019-05-30T07:21:36.359Z,13.44
2019-05-30T07:31:40.935Z,13.41
2019-05-30T07:41:45.386Z,13.60
2019-05-30T07:51:49.892Z,13.73
2019-05-30T08:01:54.435Z,13.91
2019-05-30T08:11:59.253Z,14.22
2019-05-30T08:22:03.785Z,14.44
2019-05-30T08:32:08.296Z,14.80
2019-05-30T08:42:12.789Z,14.93
2019-05-30T08:52:17.321Z,14.95
2019-05-30T09:02:21.806Z,14.76
2019-05-30T09:12:26.967Z,14.79
2019-05-30T09:22:31.639Z,14.99
2019-05-30T09:32:36.270Z,15.01
2019-05-30T09:42:42.621Z,15.23
2019-05-30T09:52:47.296Z,15.47
2019-05-30T10:02:52.535Z,15.82
2019-05-30T10:12:57.072Z,16.10
2019-05-30T10:23:03.578Z,16.22
2019-05-30T10:33:07.879Z,16.84
2019-05-30T10:43:12.346Z,17.30
2019-05-30T10:53:16.802Z,17.66
2019-05-30T11:03:21.706Z,18.49
2019-05-30T11:13:27.200Z,19.46
2019-05-30T11:23:31.727Z,20.17
2019-05-30T11:33:37.232Z,22.45
2019-05-30T11:43:42.773Z,23.15
2019-05-30T11:53:47.372Z,23.60
2019-05-30T12:03:52.508Z,24.84
2019-05-30T12:13:57.482Z,26.70
2019-05-30T12:24:02.653Z,28.09
2019-05-30T12:34:07.295Z,29.85
2019-05-30T12:44:11.865Z,29.01
2019-05-30T12:54:16.454Z,31.20
2019-05-30T13:04:21.141Z,28.79
2019-05-30T13:14:26.784Z,27.74
2019-05-30T13:24:32.411Z,29.04
2019-05-30T13:34:36.841Z,29.81
2019-05-30T13:44:41.307Z,29.26
2019-05-30T13:54:45.853Z,28.79
2019-05-30T14:04:50.297Z,29.55
2019-05-30T14:14:54.891Z,29.00
2019-05-30T14:25:01.293Z,28.54
2019-05-30T14:35:08.661Z,29.98
2019-05-30T14:45:16.816Z,29.78
2019-05-30T14:55:21.860Z,30.23
2019-05-30T15:05:26.451Z,31.56
2019-05-30T15:15:31.003Z,28.52
2019-05-30T15:25:35.662Z,26.83
2019-05-30T15:35:40.270Z,25.88
2019-05-30T15:45:44.860Z,26.46
2019-05-30T15:55:49.356Z,26.91
2019-05-30T16:05:53.868Z,28.06
2019-05-30T16:15:58.370Z,26.47
2019-05-30T16:26:02.809Z,26.22
2019-05-30T16:36:08.600Z,26.98
2019-05-30T16:46:14.260Z,27.89
2019-05-30T16:56:19.420Z,26.91
2019-05-30T17:06:24.048Z,27.34
2019-05-30T17:16:28.678Z,25.26
2019-05-30T17:26:33.216Z,25.16
2019-05-30T17:36:37.824Z,23.99
2019-05-30T17:46:42.357Z,23.09
2019-05-30T17:56:46.892Z,22.09
2019-05-30T18:06:51.334Z,21.93
2019-05-30T18:16:55.797Z,20.98
2019-05-30T18:27:00.270Z,19.41
2019-05-30T18:37:04.854Z,18.71
2019-05-30T18:47:09.422Z,18.13
2019-05-30T18:57:13.945Z,17.51
2019-05-30T19:07:18.688Z,16.96
2019-05-30T19:17:23.404Z,16.46
2019-05-30T19:27:28.704Z,16.16
2019-05-30T19:37:35.354Z,15.75
2019-05-30T19:47:40.203Z,15.36
2019-05-30T19:57:45.575Z,14.95
2019-05-30T20:07:50.174Z,14.23
2019-05-30T20:17:54.891Z,13.67
2019-05-30T20:27:59.358Z,13.13
2019-05-30T20:38:03.903Z,12.78
2019-05-30T20:48:08.716Z,12.36
2019-05-30T20:58:13.226Z,12.01
2019-05-30T21:08:17.861Z,11.92
2019-05-30T21:18:24.114Z,11.49
2019-05-30T21:28:28.702Z,11.18
2019-05-30T21:38:33.171Z,11.19
2019-05-30T21:48:38.801Z,10.81
2019-05-30T21:58:44.345Z,10.68
2019-05-30T22:08:49.317Z,10.49
2019-05-30T22:18:53.961Z,10.42
2019-05-30T22:28:58.768Z,10.34
2019-05-30T22:39:03.361Z,9.94
2019-05-30T22:49:08.355Z,10.01
2019-05-30T22:59:13.933Z,9.63
2019-05-30T23:09:19.408Z,9.52
2019-05-30T23:19:23.866Z,9.49
2019-05-30T23:29:28.299Z,9.44
2019-05-30T23:39:32.759Z,9.21
2019-05-30T23:49:37.241Z,8.86
2019-05-30T23:59:41.689Z,8.63
